createdAt,value
2019-02-28T00:03:39.846Z,49.50
2019-02-28T00:07:44.418Z,49.50
2019-02-28T00:11:48.784Z,49.60
2019-02-28T00:15:53.507Z,49.80
2019-02-28T00:19:58.666Z,49.80
2019-02-28T00:24:03.949Z,49.90
2019-02-28T00:28:08.921Z,50.00
2019-02-28T00:32:13.951Z,50.20
2019-02-28T00:36:19.245Z,50.50
2019-02-28T00:40:24.372Z,50.60
2019-02-28T00:44:31.300Z,50.60
2019-02-28T00:48:35.609Z,50.90
2019-02-28T00:52:40.387Z,50.80
2019-02-28T00:56:45.136Z,50.90
2019-02-28T01:00:49.980Z,50.70
2019-02-28T01:04:54.402Z,50.10
2019-02-28T01:08:59.547Z,49.50
2019-02-28T01:13:06.049Z,49.10
2019-02-28T01:17:10.478Z,48.80
2019-02-28T01:21:14.909Z,49.10
2019-02-28T01:25:19.749Z,49.20
2019-02-28T01:29:24.514Z,49.20
2019-02-28T01:33:29.546Z,49.30
2019-02-28T01:37:34.473Z,49.10
2019-02-28T01:41:38.885Z,48.80
2019-02-28T01:45:44.566Z,48.40
2019-02-28T01:49:49.307Z,48.50
2019-02-28T01:53:54.388Z,48.70
2019-02-28T01:57:59.523Z,48.70
2019-02-28T02:02:06.678Z,48.50
2019-02-28T02:06:10.289Z,48.70
2019-02-28T02:10:21.661Z,48.80
2019-02-28T02:14:26.864Z,49.10
2019-02-28T02:18:31.632Z,49.90
2019-02-28T02:22:40.584Z,50.30
2019-02-28T02:26:45.954Z,50.60
2019-02-28T02:30:52.027Z,51.30
2019-02-28T02:34:56.911Z,51.80
2019-02-28T02:39:01.467Z,52.30
2019-02-28T02:43:08.168Z,52.50
2019-02-28T02:47:14.109Z,53.00
2019-02-28T02:51:19.235Z,53.50
2019-02-28T02:55:27.778Z,53.80
2019-02-28T02:59:37.500Z,54.20
2019-02-28T03:03:42.823Z,54.30
2019-02-28T03:07:44.613Z,54.80
2019-02-28T03:11:49.430Z,55.00
2019-02-28T03:15:53.872Z,55.50
2019-02-28T03:19:58.890Z,55.90
2019-02-28T03:24:03.648Z,55.80
2019-02-28T03:28:08.384Z,56.20
2019-02-28T03:32:13.580Z,56.50
2019-02-28T03:36:17.997Z,56.90
2019-02-28T03:40:22.378Z,57.10
2019-02-28T03:44:27.452Z,57.20
2019-02-28T03:48:35.998Z,57.80
2019-02-28T03:52:43.825Z,58.10
2019-02-28T03:56:51.243Z,58.20
2019-02-28T04:00:50.986Z,58.30
2019-02-28T04:04:55.618Z,58.50
2019-02-28T04:09:07.016Z,58.50
2019-02-28T04:13:08.374Z,59.10
2019-02-28T04:17:13.331Z,59.60
2019-02-28T04:21:17.811Z,60.00
2019-02-28T04:25:24.238Z,60.20
2019-02-28T04:29:31.141Z,60.20
2019-02-28T04:33:41.127Z,60.20
2019-02-28T04:37:47.308Z,61.00
2019-02-28T04:41:52.326Z,61.50
2019-02-28T04:45:57.651Z,61.90
2019-02-28T04:50:02.916Z,61.70
2019-02-28T04:54:07.405Z,61.40
2019-02-28T04:58:12.165Z,61.70
2019-02-28T05:02:19.948Z,61.80
2019-02-28T05:06:23.961Z,62.70
2019-02-28T05:10:28.815Z,63.00
2019-02-28T05:14:33.275Z,63.20
2019-02-28T05:18:38.030Z,63.40
2019-02-28T05:22:42.525Z,64.10
2019-02-28T05:26:47.199Z,64.70
2019-02-28T05:30:53.689Z,65.10
2019-02-28T05:34:58.695Z,65.10
2019-02-28T05:39:05.161Z,65.40
2019-02-28T05:43:09.629Z,65.60
2019-02-28T05:47:14.439Z,65.40
2019-02-28T05:51:19.103Z,65.60
2019-02-28T05:55:25.609Z,65.60
2019-02-28T05:59:30.297Z,66.10
2019-02-28T06:03:34.781Z,66.60
2019-02-28T06:07:39.399Z,66.90
2019-02-28T06:11:49.001Z,67.40
2019-02-28T06:15:53.463Z,67.80
2019-02-28T06:19:58.273Z,68.30
2019-02-28T06:24:03.028Z,68.80
2019-02-28T06:28:07.984Z,69.00
2019-02-28T06:32:13.611Z,69.50
2019-02-28T06:36:18.758Z,69.60
2019-02-28T06:40:23.239Z,69.60
2019-02-28T06:44:28.157Z,69.90
2019-02-28T06:48:32.831Z,70.10
2019-02-28T06:52:38.776Z,70.00
2019-02-28T06:56:43.397Z,69.70
2019-02-28T07:00:50.427Z,69.50
2019-02-28T07:04:55.135Z,69.90
2019-02-28T07:09:02.528Z,69.50
2019-02-28T07:13:08.028Z,69.30
2019-02-28T07:17:12.392Z,69.60
2019-02-28T07:21:17.153Z,69.50
2019-02-28T07:25:21.816Z,69.90
2019-02-28T07:29:26.285Z,69.90
2019-02-28T07:33:31.668Z,69.90
2019-02-28T07:37:36.472Z,69.80
2019-02-28T07:41:41.458Z,69.40
2019-02-28T07:45:47.206Z,69.20
2019-02-28T07:49:53.238Z,69.40
2019-02-28T07:53:57.968Z,69.10
2019-02-28T07:58:02.359Z,69.00
2019-02-28T08:02:06.971Z,68.80
2019-02-28T08:06:12.194Z,68.70
2019-02-28T08:10:18.406Z,68.40
2019-02-28T08:14:22.834Z,68.00
2019-02-28T08:18:27.337Z,67.40
2019-02-28T08:22:32.713Z,66.80
2019-02-28T08:26:37.344Z,67.90
2019-02-28T08:30:41.751Z,66.90
2019-02-28T08:34:46.926Z,66.70
2019-02-28T08:38:51.911Z,65.70
2019-02-28T08:42:57.895Z,65.30
2019-02-28T08:47:03.518Z,64.60
2019-02-28T08:51:08.225Z,63.90
2019-02-28T08:55:14.121Z,62.70
2019-02-28T08:59:21.846Z,61.90
2019-02-28T09:03:27.407Z,58.90
2019-02-28T09:07:31.793Z,55.00
2019-02-28T09:11:37.090Z,51.40
2019-02-28T09:15:41.672Z,49.70
2019-02-28T09:19:46.450Z,49.40
2019-02-28T09:23:52.372Z,49.10
2019-02-28T09:27:57.210Z,47.30
2019-02-28T09:32:01.582Z,46.50
2019-02-28T09:36:06.204Z,48.00
2019-02-28T09:40:12.020Z,46.10
2019-02-28T09:44:16.494Z,45.60
2019-02-28T09:48:21.350Z,43.70
2019-02-28T09:52:26.206Z,39.60
2019-02-28T09:56:30.776Z,41.00
2019-02-28T10:00:36.542Z,40.30
2019-02-28T10:04:41.665Z,42.10
2019-02-28T10:08:46.632Z,42.50
2019-02-28T10:12:51.280Z,43.50
2019-02-28T10:16:56.338Z,47.80
2019-02-28T10:21:02.746Z,44.30
2019-02-28T10:25:08.139Z,44.00
2019-02-28T10:29:13.891Z,44.10
2019-02-28T10:33:18.487Z,43.20
2019-02-28T10:37:23.600Z,44.30
2019-02-28T10:41:31.127Z,43.70
2019-02-28T10:45:38.344Z,42.30
2019-02-28T10:49:44.821Z,39.90
2019-02-28T10:53:49.923Z,36.40
2019-02-28T10:57:54.390Z,36.70
2019-02-28T11:01:59.591Z,38.30
2019-02-28T11:06:04.254Z,37.40
2019-02-28T11:10:09.327Z,35.90
2019-02-28T11:14:14.548Z,39.60
2019-02-28T11:18:19.041Z,38.20
2019-02-28T11:22:23.839Z,40.20
2019-02-28T11:26:30.411Z,44.80
2019-02-28T11:30:37.392Z,41.80
2019-02-28T11:34:41.811Z,38.40
2019-02-28T11:38:46.571Z,39.40
2019-02-28T11:42:51.289Z,37.30
2019-02-28T11:46:57.028Z,36.80
2019-02-28T11:51:01.859Z,37.10
2019-02-28T11:55:07.095Z,37.10
2019-02-28T11:59:11.760Z,37.40
2019-02-28T12:03:17.468Z,38.20
2019-02-28T12:07:22.415Z,37.20
2019-02-28T12:11:27.836Z,37.80
2019-02-28T12:15:32.282Z,35.10
2019-02-28T12:19:36.784Z,35.20
2019-02-28T12:23:41.712Z,37.70
2019-02-28T12:27:46.533Z,45.60
2019-02-28T12:31:51.393Z,47.50
2019-02-28T12:35:55.962Z,47.70
2019-02-28T12:40:00.669Z,47.40
2019-02-28T12:44:05.881Z,47.90
2019-02-28T12:48:13.704Z,48.70
2019-02-28T12:52:16.923Z,50.10
2019-02-28T12:56:21.371Z,50.00
2019-02-28T13:00:28.895Z,51.40
2019-02-28T13:04:35.873Z,52.90
2019-02-28T13:08:41.757Z,51.80
2019-02-28T13:12:48.944Z,51.90
2019-02-28T13:16:54.608Z,51.20
2019-02-28T13:20:59.678Z,50.80
2019-02-28T13:25:04.848Z,50.50
2019-02-28T13:29:10.815Z,49.60
2019-02-28T13:33:18.368Z,51.50
2019-02-28T13:37:23.188Z,53.10
2019-02-28T13:41:27.965Z,52.90
2019-02-28T13:45:33.108Z,52.30
2019-02-28T13:49:38.538Z,52.80
2019-02-28T13:53:44.002Z,52.30
2019-02-28T13:57:48.665Z,52.50
2019-02-28T14:01:55.601Z,52.50
2019-02-28T14:06:00.878Z,52.90
2019-02-28T14:10:06.405Z,54.00
2019-02-28T14:14:11.487Z,55.00
2019-02-28T14:18:17.542Z,54.70
2019-02-28T14:22:22.172Z,54.40
2019-02-28T14:26:27.935Z,53.90
2019-02-28T14:30:33.102Z,54.10
2019-02-28T14:34:37.723Z,53.90
2019-02-28T14:38:42.191Z,55.30
2019-02-28T14:42:47.110Z,55.40
2019-02-28T14:46:53.333Z,55.80
2019-02-28T14:50:59.131Z,56.60
2019-02-28T14:55:03.827Z,56.90
2019-02-28T14:59:08.462Z,56.80
2019-02-28T15:03:14.890Z,57.10
2019-02-28T15:07:20.263Z,57.90
2019-02-28T15:11:26.107Z,57.80
2019-02-28T15:15:30.711Z,58.20
2019-02-28T15:19:35.123Z,58.60
2019-02-28T15:23:39.677Z,59.30
2019-02-28T15:27:44.183Z,60.00
2019-02-28T15:31:49.464Z,60.10
2019-02-28T15:35:54.375Z,61.20
2019-02-28T15:39:59.088Z,61.60
2019-02-28T15:44:04.246Z,63.10
2019-02-28T15:48:09.152Z,62.50
2019-02-28T15:52:13.945Z,63.30
2019-02-28T15:56:19.924Z,63.60
2019-02-28T16:00:28.468Z,64.40
2019-02-28T16:04:32.947Z,65.00
2019-02-28T16:08:41.978Z,65.40
2019-02-28T16:12:46.575Z,66.10
2019-02-28T16:16:52.676Z,66.90
2019-02-28T16:20:57.746Z,67.50
2019-02-28T16:25:02.972Z,68.30
2019-02-28T16:29:07.722Z,69.10
2019-02-28T16:33:12.256Z,69.70
2019-02-28T16:37:18.779Z,71.30
2019-02-28T16:41:23.424Z,72.20
2019-02-28T16:45:40.785Z,73.10
2019-02-28T16:49:46.384Z,73.90
2019-02-28T16:53:53.120Z,74.90
2019-02-28T16:57:57.737Z,75.20
2019-02-28T17:02:02.386Z,75.50
2019-02-28T17:06:08.174Z,75.90
2019-02-28T17:10:15.795Z,76.40
2019-02-28T17:14:20.240Z,76.90
2019-02-28T17:18:26.166Z,77.00
2019-02-28T17:22:30.975Z,77.60
2019-02-28T17:26:49.611Z,77.80
2019-02-28T17:31:13.804Z,78.40
2019-02-28T17:35:22.164Z,78.80
2019-02-28T17:39:27.171Z,79.00
2019-02-28T17:43:31.602Z,79.30
2019-02-28T17:48:22.252Z,79.70
2019-02-28T17:52:33.842Z,79.90
2019-02-28T17:57:27.711Z,79.90
2019-02-28T18:01:49.399Z,80.10
2019-02-28T18:06:36.473Z,80.50
2019-02-28T18:11:17.419Z,80.50
2019-02-28T18:15:35.031Z,81.10
2019-02-28T18:19:55.196Z,81.20
2019-02-28T18:24:29.611Z,81.30
2019-02-28T18:29:06.127Z,81.90
2019-02-28T18:33:11.231Z,82.10
2019-02-28T18:37:16.120Z,82.40
2019-02-28T18:41:21.680Z,82.60
2019-02-28T18:45:27.190Z,83.00
2019-02-28T18:49:31.940Z,83.00
2019-02-28T18:53:37.776Z,83.40
2019-02-28T18:57:42.685Z,83.90
2019-02-28T19:01:49.617Z,84.00
2019-02-28T19:05:55.389Z,84.40
2019-02-28T19:10:00.929Z,84.80
2019-02-28T19:14:07.530Z,84.90
2019-02-28T19:18:12.875Z,85.20
2019-02-28T19:22:17.635Z,85.50
2019-02-28T19:26:25.088Z,85.20
2019-02-28T19:30:35.110Z,85.60
2019-02-28T19:34:40.313Z,85.90
2019-02-28T19:38:45.438Z,86.30
2019-02-28T19:42:51.668Z,86.40
2019-02-28T19:46:56.832Z,86.50
2019-02-28T19:51:33.284Z,86.30
2019-02-28T19:56:21.862Z,86.50
2019-02-28T20:00:31.060Z,86.70
2019-02-28T20:04:39.170Z,86.90
2019-02-28T20:08:55.743Z,86.90
2019-02-28T20:13:02.693Z,87.00
2019-02-28T20:17:16.786Z,87.00
2019-02-28T20:26:24.696Z,86.10
2019-02-28T20:30:42.788Z,85.90
2019-02-28T20:35:03.247Z,85.60
2019-02-28T20:39:17.726Z,85.50
2019-02-28T20:43:46.857Z,84.90
2019-02-28T20:48:14.553Z,84.80
2019-02-28T20:52:19.454Z,84.90
2019-02-28T20:56:24.192Z,85.20
2019-02-28T21:00:29.884Z,85.20
2019-02-28T21:04:36.291Z,85.20
2019-02-28T21:08:42.007Z,85.30
2019-02-28T21:12:47.240Z,85.20
2019-02-28T21:16:52.328Z,85.30
2019-02-28T21:20:57.428Z,84.90
2019-02-28T21:25:06.415Z,84.40
2019-02-28T21:29:31.091Z,84.60
2019-02-28T21:33:42.001Z,84.60
2019-02-28T21:37:53.245Z,84.40
2019-02-28T21:42:00.015Z,83.90
2019-02-28T21:46:08.355Z,83.40
2019-02-28T21:50:15.716Z,83.30
2019-02-28T21:54:21.519Z,82.70
2019-02-28T21:58:25.962Z,82.60
2019-02-28T22:02:30.816Z,82.10
2019-02-28T22:06:38.904Z,82.10
2019-02-28T22:10:46.792Z,82.50
2019-02-28T22:15:00.870Z,82.40
2019-02-28T22:19:06.022Z,81.40
2019-02-28T22:23:15.210Z,81.10
2019-02-28T22:27:39.863Z,81.00
2019-02-28T22:32:12.558Z,80.60
2019-02-28T22:36:21.469Z,80.70
2019-02-28T22:40:28.063Z,80.60
2019-02-28T22:44:33.346Z,80.30
2019-02-28T22:48:38.173Z,80.40
2019-02-28T22:52:43.386Z,80.70
2019-02-28T22:56:47.952Z,80.90
2019-02-28T23:01:10.041Z,80.70
2019-02-28T23:05:14.892Z,80.20
2019-02-28T23:09:19.625Z,80.70
2019-02-28T23:13:24.772Z,80.30
2019-02-28T23:17:30.344Z,80.60
2019-02-28T23:21:35.308Z,80.30
2019-02-28T23:25:40.069Z,80.20
2019-02-28T23:29:51.964Z,80.60
2019-02-28T23:34:01.362Z,80.90
2019-02-28T23:38:04.740Z,80.90
2019-02-28T23:42:11.384Z,80.90
2019-02-28T23:46:17.632Z,80.90
2019-02-28T23:50:22.553Z,81.00
2019-02-28T23:54:27.709Z,81.10
2019-02-28T23:58:32.281Z,80.50
